Time;durP1;ratioP1;P1;durP2;ratioP2;P2;SDS_P1;SDS_P2;PMS_P1;PMS_P2;Temp;Humidity;BMP_temperature;BMP_pressure;BME280_temperature;BME280_humidity;BME280_pressure;Samples;Min_cycle;Max_cycle;Signal;HPM_P1;HPM_P2
2021/12/12 00:00:45;;;;;;;33.80;9.07;;;;;;;-146.64;100.00;39874.03;5050011;28;20038;-77
2021/12/12 00:03:20;;;;;;;29.23;9.35;;;;;;;-146.64;100.00;39861.75;5059486;28;20035;-77
2021/12/12 00:05:51;;;;;;;25.73;8.05;;;;;;;-146.64;100.00;39851.53;5059982;28;20150;-78
2021/12/12 00:08:19;;;;;;;24.83;8.75;;;;;;;-146.64;100.00;39857.66;5062537;28;20357;-78
2021/12/12 00:10:49;;;;;;;33.47;8.85;;;;;;;-146.64;100.00;39845.38;5051934;28;20119;-77
2021/12/12 00:13:19;;;;;;;30.17;8.15;;;;;;;-146.64;100.00;39837.19;5040403;28;20056;-77
2021/12/12 00:15:44;;;;;;;26.98;8.55;;;;;;;-146.64;100.00;39845.38;5053288;28;20060;-78
2021/12/12 00:18:10;;;;;;;30.63;8.82;;;;;;;-146.64;100.00;39857.66;5041842;28;20044;-78
2021/12/12 00:20:36;;;;;;;25.70;7.57;;;;;;;-146.64;100.00;39829.00;5049056;28;20033;-78
2021/12/12 00:23:04;;;;;;;32.73;8.80;;;;;;;-146.64;100.00;39849.47;5061017;28;20036;-78
2021/12/12 00:25:34;;;;;;;30.13;8.98;;;;;;;-146.64;100.00;39853.56;5040946;28;20028;-77
2021/12/12 00:27:59;;;;;;;28.45;8.38;;;;;;;-146.64;100.00;39841.28;5057585;28;20153;-77
2021/12/12 00:30:26;;;;;;;31.08;9.65;;;;;;;-146.64;100.00;39869.94;5062572;28;20486;-77
2021/12/12 00:32:52;;;;;;;29.60;9.52;;;;;;;-146.64;100.00;39853.56;5069482;28;20027;-77
2021/12/12 00:35:18;;;;;;;;;;;;;;;-146.64;100.00;39853.56;5054860;28;20071;-77
2021/12/12 00:37:45;;;;;;;26.02;8.13;;;;;;;-146.64;100.00;39861.75;5039318;28;19972;-76
2021/12/12 00:40:24;;;;;;;20.92;8.48;;;;;;;-146.64;100.00;39771.69;5057387;28;20077;-76
2021/12/12 00:42:51;;;;;;;29.98;9.35;;;;;;;-146.64;100.00;39845.38;5070146;28;20341;-76
2021/12/12 00:45:16;;;;;;;;;;;;;;;-146.64;100.00;39845.38;5042211;28;20102;-76
2021/12/12 00:47:44;;;;;;;26.88;9.00;;;;;;;-146.64;100.00;39857.66;5062384;28;19962;-77
2021/12/12 00:50:38;;;;;;;33.13;8.25;;;;;;;-146.64;100.00;39865.84;5061303;28;20542;-77
2021/12/12 00:53:06;;;;;;;32.42;9.60;;;;;;;-146.64;100.00;39861.75;5055924;28;20044;-77
2021/12/12 00:55:38;;;;;;;29.10;8.98;;;;;;;-146.64;100.00;39906.78;5072276;28;20056;-77
2021/12/12 00:58:05;;;;;;;21.00;7.68;;;;;;;-146.64;100.00;39906.78;5038801;28;20061;-76
2021/12/12 01:00:36;;;;;;;28.20;8.35;;;;;;;-146.64;100.00;39806.50;5065700;28;20058;-77
2021/12/12 01:03:04;;;;;;;36.97;9.02;;;;;;;-146.64;100.00;39869.94;5058022;28;20376;-76
2021/12/12 01:05:29;;;;;;;23.90;8.18;;;;;;;-146.64;100.00;39898.59;5052530;28;20056;-76
2021/12/12 01:07:56;;;;;;;25.23;8.23;;;;;;;-146.64;100.00;39884.28;5039699;28;20115;-76
2021/12/12 01:10:42;;;;;;;;;;;;;;;-146.64;100.00;39886.31;5057535;28;20499;-77
2021/12/12 01:13:07;;;;;;;25.13;7.53;;;;;;;-146.64;100.00;39874.03;5054340;28;20450;-77
2021/12/12 01:15:39;;;;;;;26.58;7.95;;;;;;;-146.64;100.00;39853.56;5072070;28;20036;-77
2021/12/12 01:18:11;;;;;;;36.38;7.80;;;;;;;-146.64;100.00;39900.66;5069858;28;20024;-78
2021/12/12 01:20:41;;;;;;;29.08;8.10;;;;;;;-146.64;100.00;39863.81;5068866;28;20029;-76
2021/12/12 01:23:13;;;;;;;37.80;9.05;;;;;;;-146.64;100.00;39820.81;5043117;28;20398;-76
2021/12/12 01:25:44;;;;;;;26.52;7.97;;;;;;;-146.64;100.00;39865.84;5059339;28;20107;-77
2021/12/12 01:28:12;;;;;;;27.20;9.10;;;;;;;-146.64;100.00;39890.41;5042728;28;20029;-77
2021/12/12 01:30:37;;;;;;;31.30;7.78;;;;;;;-146.64;100.00;39884.28;5067527;28;20060;-77
2021/12/12 01:33:03;;;;;;;29.13;8.70;;;;;;;-146.64;100.00;39902.69;5061537;28;20056;-77
2021/12/12 01:35:28;;;;;;;23.75;7.95;;;;;;;-146.64;100.00;39925.22;5053821;28;20115;-77
2021/12/12 01:40:54;;;;;;;21.45;7.97;;;;;;;-146.64;100.00;39894.50;5060112;28;20090;-77
2021/12/12 01:43:26;;;;;;;25.77;7.13;;;;;;;-146.64;100.00;39902.69;5048763;28;20035;-76
2021/12/12 01:46:35;;;;;;;23.73;8.18;;;;;;;-146.64;100.00;39943.63;5056005;28;20033;-76
2021/12/12 01:49:05;;;;;;;36.03;8.23;;;;;;;-146.64;100.00;39902.69;5061739;28;20020;-76
2021/12/12 01:51:31;;;;;;;33.20;9.23;;;;;;;-146.64;100.00;39892.47;5059328;28;20431;-76
2021/12/12 01:53:59;;;;;;;27.70;7.57;;;;;;;-146.64;100.00;39914.97;5052063;28;20016;-76
2021/12/12 01:56:30;;;;;;;24.88;8.38;;;;;;;-146.64;100.00;39927.25;5052211;28;20132;-76
2021/12/12 01:58:59;;;;;;;28.15;8.43;;;;;;;-146.64;100.00;39931.34;5040864;28;20021;-76
2021/12/12 02:01:29;;;;;;;25.83;7.97;;;;;;;-146.64;100.00;39927.25;5073633;28;20075;-76
2021/12/12 02:04:03;;;;;;;27.23;9.20;;;;;;;-146.64;100.00;39947.72;5068786;28;20024;-75
2021/12/12 02:06:29;;;;;;;26.73;8.32;;;;;;;-146.64;100.00;39960.00;5036592;28;20145;-76
2021/12/12 02:08:56;;;;;;;28.38;7.43;;;;;;;-146.64;100.00;39968.19;5065845;28;20093;-75
2021/12/12 02:11:27;;;;;;;32.35;8.15;;;;;;;-146.64;100.00;39980.47;5059792;28;20458;-76
2021/12/12 02:13:56;;;;;;;30.92;8.15;;;;;;;-146.64;100.00;39996.84;5053262;28;20032;-77
2021/12/12 02:16:23;;;;;;;31.23;8.00;;;;;;;-146.64;100.00;39988.66;5059704;28;20028;-76
2021/12/12 02:18:54;;;;;;;18.83;7.90;;;;;;;-146.64;100.00;40007.09;5057823;28;20065;-75
2021/12/12 02:21:27;;;;;;;32.65;8.13;;;;;;;-146.64;100.00;40013.22;5052127;28;20366;-76
2021/12/12 02:24:37;;;;;;;27.70;9.75;;;;;;;-146.64;100.00;39992.75;5051840;28;20067;-78
2021/12/12 02:35:30;;;;;;;29.80;10.68;;;;;;;-146.64;100.00;40017.31;5057873;28;20040;-76
2021/12/12 02:37:58;;;;;;;29.50;10.13;;;;;;;-146.64;100.00;39982.53;5061467;28;20066;-77
2021/12/12 02:40:29;;;;;;;35.03;11.07;;;;;;;-146.64;100.00;40045.97;5055167;28;20082;-77
2021/12/12 02:42:55;;;;;;;28.85;10.55;;;;;;;-146.64;100.00;40013.22;5063891;28;20024;-76
2021/12/12 02:45:23;;;;;;;;;;;;;;;-146.64;100.00;40048.03;5053527;28;20100;-76
2021/12/12 02:47:57;;;;;;;39.15;12.15;;;;;;;-146.64;100.00;40066.44;5052637;28;20012;-77
2021/12/12 02:50:27;;;;;;;29.67;11.43;;;;;;;-146.64;100.00;40041.88;5065191;28;20043;-76
2021/12/12 02:52:57;;;;;;;27.52;11.77;;;;;;;-146.64;100.00;40045.97;5052254;28;20039;-77
2021/12/12 02:55:29;;;;;;;28.20;11.88;;;;;;;-146.64;100.00;40066.44;5051663;28;20107;-78
2021/12/12 02:57:58;;;;;;;31.23;12.27;;;;;;;-146.64;100.00;40066.44;5063350;28;20027;-77
2021/12/12 03:00:30;;;;;;;38.17;13.10;;;;;;;-146.64;100.00;40068.50;5053347;28;20024;-76
2021/12/12 03:03:00;;;;;;;26.42;12.23;;;;;;;-146.64;100.00;40082.81;5051741;28;20119;-77
2021/12/12 03:05:32;;;;;;;30.58;13.35;;;;;;;-146.64;100.00;40099.19;5051388;28;20089;-77
2021/12/12 03:07:58;;;;;;;28.67;13.95;;;;;;;-146.64;100.00;40125.81;5035290;28;20040;-77
2021/12/12 03:10:33;;;;;;;29.25;14.25;;;;;;;-146.64;100.00;40107.38;5051111;28;20116;-77
2021/12/12 03:12:58;;;;;;;28.48;14.48;;;;;;;-146.64;100.00;40109.44;5047286;28;20477;-77
2021/12/12 03:15:27;;;;;;;40.40;15.27;;;;;;;-146.64;100.00;40119.66;5052849;28;20028;-76
2021/12/12 03:17:56;;;;;;;26.42;14.15;;;;;;;-146.64;100.00;40115.56;5062976;28;20484;-77
2021/12/12 03:20:27;;;;;;;44.88;16.38;;;;;;;-146.64;100.00;40119.66;5056575;28;20025;-76
2021/12/12 03:23:08;;;;;;;28.38;17.23;;;;;;;-146.64;100.00;40111.47;5020942;28;20041;-76
2021/12/12 03:25:37;;;;;;;33.97;17.02;;;;;;;-146.64;100.00;40127.84;5050862;28;20100;-76
2021/12/12 03:28:10;;;;;;;28.52;17.63;;;;;;;-146.64;100.00;40136.03;5056407;28;20025;-77
2021/12/12 03:30:36;;;;;;;45.22;17.90;;;;;;;-146.64;100.00;40136.03;5033692;28;20396;-77
2021/12/12 03:33:03;;;;;;;34.05;18.25;;;;;;;-146.64;100.00;40142.19;5045354;28;20445;-77
2021/12/12 03:35:28;;;;;;;30.42;17.50;;;;;;;-146.64;100.00;40154.47;5057036;28;20104;-77
2021/12/12 03:37:53;;;;;;;31.15;17.55;;;;;;;-146.64;100.00;40179.03;5037220;28;20128;-77
2021/12/12 03:40:28;;;;;;;30.05;16.17;;;;;;;-146.64;100.00;40179.03;5034318;28;20392;-76
2021/12/12 03:42:55;;;;;;;32.85;18.50;;;;;;;-146.64;100.00;40181.09;5060950;28;20031;-76
2021/12/12 03:45:21;;;;;;;34.40;17.52;;;;;;;-146.64;100.00;40150.38;5055526;28;20024;-77
2021/12/12 03:47:51;;;;;;;30.57;18.90;;;;;;;-146.64;100.00;40177.00;5066540;28;20031;-77
2021/12/12 03:50:26;;;;;;;34.92;18.02;;;;;;;-146.64;100.00;40091.00;5042387;28;20090;-77
2021/12/12 03:52:54;;;;;;;35.20;18.13;;;;;;;-146.64;100.00;40203.59;5060253;28;20063;-76
2021/12/12 03:55:21;;;;;;;29.73;18.35;;;;;;;-146.64;100.00;40213.84;5070480;28;20040;-77
2021/12/12 03:57:48;;;;;;;33.58;18.08;;;;;;;-146.64;100.00;40160.63;5060318;28;20029;-76
2021/12/12 04:00:39;;;;;;;35.67;17.67;;;;;;;-146.64;100.00;40193.38;5050856;28;20151;-77
2021/12/12 04:03:06;;;;;;;33.90;18.58;;;;;;;-146.64;100.00;40172.91;5050652;28;20041;-77
2021/12/12 04:05:31;;;;;;;29.40;18.33;;;;;;;-146.64;100.00;40191.31;5054611;28;20163;-77
2021/12/12 04:07:57;;;;;;;31.85;19.75;;;;;;;-146.64;100.00;40199.50;5062852;28;20468;-76
2021/12/12 04:10:24;;;;;;;29.38;19.20;;;;;;;-146.64;100.00;40181.09;5037966;28;20060;-76
2021/12/12 04:12:50;;;;;;;;;;;;;;;-146.64;100.00;40201.56;5054191;28;20456;-76
2021/12/12 04:15:16;;;;;;;32.60;18.83;;;;;;;-146.64;100.00;40203.59;5062740;28;20015;-77
2021/12/12 04:17:42;;;;;;;37.20;19.85;;;;;;;-146.64;100.00;40213.84;5064457;28;20028;-78
2021/12/12 04:20:32;;;;;;;27.55;19.00;;;;;;;-146.64;100.00;40193.38;5055480;28;20037;-76
2021/12/12 04:22:58;;;;;;;38.65;20.25;;;;;;;-146.64;100.00;40211.78;5055462;28;20037;-77
2021/12/12 04:25:24;;;;;;;36.75;21.58;;;;;;;-146.64;100.00;40238.41;5057946;28;20031;-77
2021/12/12 04:27:52;;;;;;;32.13;20.20;;;;;;;-146.64;100.00;40226.13;5068051;28;20119;-77
2021/12/12 04:30:19;;;;;;;30.85;19.75;;;;;;;-146.64;100.00;40228.16;5040359;28;20542;-78
2021/12/12 04:32:45;;;;;;;27.65;19.15;;;;;;;-146.64;100.00;40209.75;5065642;28;20028;-76
2021/12/12 04:35:25;;;;;;;32.25;19.02;;;;;;;-146.64;100.00;40238.41;5057114;28;20037;-77
2021/12/12 04:37:52;;;;;;;30.73;17.73;;;;;;;-146.64;100.00;40217.94;5043257;28;20114;-77
2021/12/12 04:40:21;;;;;;;27.55;17.40;;;;;;;-146.64;100.00;40230.22;5056849;28;20457;-77
2021/12/12 04:42:49;;;;;;;32.13;15.48;;;;;;;-146.64;100.00;40217.94;5041931;28;20123;-78
2021/12/12 04:45:36;;;;;;;23.92;16.48;;;;;;;-146.64;100.00;40191.31;5059470;28;20025;-77
2021/12/12 04:50:59;;;;;;;26.38;15.52;;;;;;;-146.64;100.00;40226.13;5060383;28;20043;-77
2021/12/12 04:53:39;;;;;;;24.70;17.10;;;;;;;-146.64;100.00;40244.53;5064298;28;20081;-75
2021/12/12 04:56:22;;;;;;;30.83;18.88;;;;;;;-146.64;100.00;40193.38;5046739;28;20041;-75
2021/12/12 04:59:00;;;;;;;33.55;18.50;;;;;;;-146.64;100.00;40213.84;5065380;28;20044;-77
2021/12/12 05:01:33;;;;;;;29.63;18.23;;;;;;;-146.64;100.00;40197.47;5039512;28;20060;-76
2021/12/12 05:04:09;;;;;;;32.40;18.38;;;;;;;-146.64;100.00;40185.19;5057917;28;20028;-76
2021/12/12 05:06:46;;;;;;;35.67;19.05;;;;;;;-146.64;100.00;40224.06;5045078;28;20041;-77
2021/12/12 05:09:30;;;;;;;34.33;18.80;;;;;;;-146.64;100.00;40191.31;5067228;28;20079;-77
2021/12/12 05:12:10;;;;;;;34.20;19.73;;;;;;;-146.64;100.00;40244.53;5057971;28;20107;-77
2021/12/12 05:14:39;;;;;;;41.20;20.05;;;;;;;-146.64;100.00;40222.03;5053382;28;20048;-77
2021/12/12 05:17:14;;;;;;;42.85;21.38;;;;;;;-146.64;100.00;40230.22;5047077;28;20111;-77
2021/12/12 05:19:45;;;;;;;41.92;21.85;;;;;;;-146.64;100.00;40250.69;5053933;28;20051;-76
2021/12/12 05:22:14;;;;;;;42.25;22.42;;;;;;;-146.64;100.00;40230.22;5040180;28;20507;-76
2021/12/12 05:24:41;;;;;;;40.03;22.73;;;;;;;-146.64;100.00;40236.34;5053810;28;20533;-76
2021/12/12 05:27:11;;;;;;;45.05;23.20;;;;;;;-146.64;100.00;40232.25;5057962;28;20020;-77
2021/12/12 05:29:41;;;;;;;43.58;23.08;;;;;;;-146.64;100.00;40244.53;5048563;28;20020;-77
2021/12/12 05:32:08;;;;;;;44.58;22.77;;;;;;;-146.64;100.00;40226.13;5057067;28;20086;-77
2021/12/12 05:34:36;;;;;;;37.72;21.35;;;;;;;-146.64;100.00;40185.19;5046251;28;20518;-77
2021/12/12 05:37:03;;;;;;;35.58;20.85;;;;;;;-146.64;100.00;40232.25;5054742;28;20068;-76
2021/12/12 05:39:30;;;;;;;48.00;24.50;;;;;;;-146.64;100.00;40238.41;5072728;28;20035;-76
2021/12/12 05:41:56;;;;;;;37.40;23.35;;;;;;;-146.64;100.00;40254.78;5066223;28;20051;-76
2021/12/12 05:44:23;;;;;;;37.97;22.70;;;;;;;-146.64;100.00;40226.13;5050412;28;20536;-77
2021/12/12 05:46:49;;;;;;;43.42;22.08;;;;;;;-146.64;100.00;40254.78;5055192;28;20107;-77
2021/12/12 05:49:14;;;;;;;49.47;24.23;;;;;;;-146.64;100.00;40236.34;5035942;28;20090;-76
2021/12/12 05:51:40;;;;;;;50.13;23.63;;;;;;;-146.64;100.00;40246.59;5047297;28;20033;-77
2021/12/12 05:54:06;;;;;;;52.25;24.58;;;;;;;-146.64;100.00;40226.13;5046057;28;20136;-77
2021/12/12 05:56:35;;;;;;;58.65;29.60;;;;;;;-146.64;100.00;40269.09;5063135;28;20106;-77
2021/12/12 05:59:03;;;;;;;56.50;25.60;;;;;;;-146.64;100.00;40254.78;5054703;28;20507;-76
2021/12/12 06:01:29;;;;;;;56.42;26.38;;;;;;;-146.64;100.00;40297.75;5057773;28;20029;-78
2021/12/12 06:03:55;;;;;;;52.45;25.23;;;;;;;-146.64;100.00;40254.78;5055739;28;20037;-77
2021/12/12 06:06:24;;;;;;;49.60;25.88;;;;;;;-146.64;100.00;40295.72;5077815;28;20124;-77
2021/12/12 06:08:50;;;;;;;52.45;26.25;;;;;;;-146.64;100.00;40303.91;5065933;28;20037;-76
2021/12/12 06:11:21;;;;;;;56.80;29.80;;;;;;;-146.64;100.00;40291.63;5052935;28;20052;-77
2021/12/12 06:13:47;;;;;;;58.10;26.05;;;;;;;-146.64;100.00;40308.00;5054933;28;20297;-77
2021/12/12 06:16:18;;;;;;;59.83;28.20;;;;;;;-146.64;100.00;40316.19;5069745;28;20028;-76
2021/12/12 06:18:45;;;;;;;61.00;27.98;;;;;;;-146.64;100.00;40281.38;5061267;28;20468;-77
2021/12/12 06:21:11;;;;;;;53.78;28.10;;;;;;;-146.64;100.00;40295.72;5037962;28;20378;-76
2021/12/12 06:23:37;;;;;;;56.30;28.38;;;;;;;-146.64;100.00;40320.28;5043751;28;20060;-77
2021/12/12 06:26:03;;;;;;;61.22;27.10;;;;;;;-146.64;100.00;40258.88;5047546;28;20056;-77
2021/12/12 06:28:31;;;;;;;53.83;26.38;;;;;;;-146.64;100.00;40324.38;5067201;28;20090;-77
2021/12/12 06:30:57;;;;;;;60.63;28.63;;;;;;;-146.64;100.00;40303.91;5057302;28;20051;-77
2021/12/12 06:33:23;;;;;;;63.38;27.92;;;;;;;-146.64;100.00;40340.75;5059436;28;20401;-77
2021/12/12 06:35:52;;;;;;;61.93;27.93;;;;;;;-146.64;100.00;40359.19;5055994;28;20511;-78
2021/12/12 06:38:18;;;;;;;65.65;27.83;;;;;;;-146.64;100.00;40328.47;5042589;28;20132;-77
2021/12/12 06:40:44;;;;;;;64.85;28.15;;;;;;;-146.64;100.00;40348.94;5053155;28;20060;-77
2021/12/12 06:43:13;;;;;;;75.78;29.55;;;;;;;-146.64;100.00;40357.13;5053542;28;20519;-76
2021/12/12 06:45:39;;;;;;;62.55;29.60;;;;;;;-146.64;100.00;40365.31;5052928;28;20392;-76
2021/12/12 06:48:06;;;;;;;75.25;30.52;;;;;;;-146.64;100.00;40381.69;5055397;28;20139;-77
2021/12/12 06:50:35;;;;;;;74.18;30.73;;;;;;;-146.64;100.00;40398.06;5068128;28;20518;-76
2021/12/12 06:53:01;;;;;;;80.13;29.25;;;;;;;-146.64;100.00;40396.03;5057402;28;20163;-77
2021/12/12 06:55:26;;;;;;;85.18;30.48;;;;;;;-146.64;100.00;40422.63;5043238;28;20537;-76
2021/12/12 06:57:52;;;;;;;68.53;29.02;;;;;;;-146.64;100.00;40426.72;5051082;28;20110;-78
2021/12/12 07:00:22;;;;;;;81.38;29.42;;;;;;;-146.64;100.00;40447.22;5036439;28;20064;-77
2021/12/12 07:02:48;;;;;;;83.05;30.95;;;;;;;-146.64;100.00;40451.31;5042424;28;20036;-77
2021/12/12 07:05:18;;;;;;;70.88;29.88;;;;;;;-146.64;100.00;40488.16;5045796;28;20013;-77
2021/12/12 07:07:46;;;;;;;79.47;29.30;;;;;;;-146.64;100.00;40510.66;5058537;28;20025;-77
2021/12/12 07:10:15;;;;;;;81.18;29.85;;;;;;;-146.64;100.00;40496.34;5070416;28;20039;-78
2021/12/12 07:12:41;;;;;;;92.10;33.15;;;;;;;-146.64;100.00;40545.47;5064466;28;20037;-79
2021/12/12 07:15:11;;;;;;;80.18;30.90;;;;;;;-146.64;100.00;40565.94;5066497;28;20107;-79
2021/12/12 07:17:37;;;;;;;89.78;30.35;;;;;;;-146.64;100.00;40545.47;5056063;28;20567;-78
2021/12/12 07:20:04;;;;;;;80.85;30.80;;;;;;;-146.64;100.00;40574.13;5034404;28;20507;-77
2021/12/12 07:22:30;;;;;;;74.80;29.75;;;;;;;-146.64;100.00;40561.84;5041814;28;20110;-80
2021/12/12 07:24:59;;;;;;;96.00;30.85;;;;;;;-146.64;100.00;40578.22;5046424;28;20503;-78
2021/12/12 07:27:24;;;;;;;83.90;28.98;;;;;;;-146.64;100.00;40633.50;5038458;28;20675;-77
2021/12/12 07:29:51;;;;;;;67.30;30.35;;;;;;;-146.64;100.00;40610.97;5038834;28;20021;-77
2021/12/12 07:32:16;;;;;;;84.82;29.42;;;;;;;-146.64;100.00;40598.69;5056098;28;20024;-78
2021/12/12 07:34:41;;;;;;;87.32;31.48;;;;;;;-146.64;100.00;40631.47;5040871;28;20043;-78
2021/12/12 07:37:08;;;;;;;94.35;31.52;;;;;;;-146.64;100.00;40627.38;5064852;28;20043;-77
2021/12/12 07:39:34;;;;;;;;;;;;;;;-146.64;100.00;40647.84;5063928;28;20395;-77
2021/12/12 07:42:02;;;;;;;84.45;30.95;;;;;;;-146.64;100.00;40653.97;5040900;28;19937;-77
2021/12/12 07:44:32;;;;;;;85.03;32.58;;;;;;;-146.64;100.00;40656.03;5058994;28;20029;-77
2021/12/12 07:46:58;;;;;;;88.57;30.92;;;;;;;-146.64;100.00;40656.03;5055005;28;20075;-77
2021/12/12 07:49:28;;;;;;;91.65;31.42;;;;;;;-146.64;100.00;40717.44;5055679;28;20020;-77
2021/12/12 07:51:53;;;;;;;100.32;32.70;;;;;;;-146.64;100.00;40680.59;5060849;28;20396;-78
2021/12/12 07:54:19;;;;;;;82.47;30.35;;;;;;;-146.64;100.00;40705.16;5058201;28;20032;-77
2021/12/12 07:56:46;;;;;;;79.97;28.58;;;;;;;-146.64;100.00;40696.97;5052736;28;20052;-77
2021/12/12 07:59:13;;;;;;;87.93;30.08;;;;;;;-146.64;100.00;40694.94;5064230;28;20552;-77
2021/12/12 08:01:42;;;;;;;84.20;30.38;;;;;;;-146.64;100.00;40721.53;5049887;28;20020;-77
2021/12/12 08:04:08;;;;;;;84.20;31.08;;;;;;;-146.64;100.00;40733.81;5048757;28;20029;-77
2021/12/12 08:06:34;;;;;;;87.60;28.42;;;;;;;-146.64;100.00;40744.06;5038304;28;20083;-77
2021/12/12 08:09:01;;;;;;;85.22;31.58;;;;;;;-146.64;100.00;40723.59;5060415;28;20038;-77
2021/12/12 08:11:28;;;;;;;73.13;29.75;;;;;;;-146.64;100.00;40744.06;5046796;28;20086;-77
2021/12/12 08:13:54;;;;;;;81.38;31.10;;;;;;;-146.64;100.00;40768.63;5052634;28;20064;-78
2021/12/12 08:16:20;;;;;;;87.55;32.28;;;;;;;-146.64;100.00;40774.78;5065130;28;20033;-76
2021/12/12 08:18:46;;;;;;;79.93;29.38;;;;;;;-146.64;100.00;40742.00;5058338;28;20036;-78
2021/12/12 08:21:11;;;;;;;85.32;31.30;;;;;;;-146.64;100.00;40778.88;5061373;28;20458;-77
2021/12/12 08:23:37;;;;;;;88.05;30.23;;;;;;;-146.64;100.00;40791.16;5037570;28;20098;-77
2021/12/12 08:26:05;;;;;;;79.27;30.03;;;;;;;-146.64;100.00;40789.09;5046908;28;20123;-77
2021/12/12 08:28:31;;;;;;;88.57;31.05;;;;;;;-146.64;100.00;40807.53;5049117;28;20265;-77
2021/12/12 08:30:57;;;;;;;79.30;32.22;;;;;;;-146.64;100.00;40834.16;5039968;28;20032;-78
2021/12/12 08:33:23;;;;;;;85.47;29.35;;;;;;;-146.64;100.00;40834.16;5045274;28;20025;-77
2021/12/12 08:35:48;;;;;;;81.10;30.50;;;;;;;-146.64;100.00;40873.03;5051653;28;20064;-77
2021/12/12 08:38:15;;;;;;;80.13;33.03;;;;;;;-146.64;100.00;40852.56;5042476;28;20036;-77
2021/12/12 08:40:49;;;;;;;75.15;28.80;;;;;;;-146.64;100.00;40914.00;5050175;28;20421;-77
2021/12/12 08:43:17;;;;;;;76.15;29.65;;;;;;;-146.64;100.00;40889.41;5058295;28;20032;-77
2021/12/12 08:45:53;;;;;;;72.10;28.33;;;;;;;-146.64;100.00;40938.56;5062954;28;20060;-77
2021/12/12 08:48:21;;;;;;;78.53;28.67;;;;;;;-146.64;100.00;40926.28;5053316;28;20031;-77
2021/12/12 08:50:48;;;;;;;64.57;28.50;;;;;;;-146.64;100.00;40934.47;5044221;28;20168;-77
2021/12/12 08:53:16;;;;;;;70.13;28.13;;;;;;;-146.64;100.00;40938.56;5064401;28;20032;-77
2021/12/12 08:55:44;;;;;;;64.25;27.63;;;;;;;-146.64;100.00;40944.72;5055406;28;20190;-76
2021/12/12 08:58:17;;;;;;;61.15;27.55;;;;;;;-146.64;100.00;40963.13;5064546;28;20028;-77
2021/12/12 09:00:55;;;;;;;73.65;26.65;;;;;;;-146.64;100.00;40930.38;5063782;28;20429;-77
2021/12/12 09:03:43;;;;;;;63.25;27.05;;;;;;;-146.64;100.00;40944.72;5043754;28;20021;-77
2021/12/12 09:06:10;;;;;;;;;;;;;;;-146.64;100.00;40942.66;5058174;28;20028;-77
2021/12/12 09:08:54;;;;;;;52.35;23.48;;;;;;;-146.64;100.00;40985.66;5056562;28;19959;-77
2021/12/12 09:11:26;;;;;;;52.10;23.67;;;;;;;-146.64;100.00;41016.38;5052875;28;20132;-77
2021/12/12 09:14:00;;;;;;;54.15;25.38;;;;;;;-146.64;100.00;41028.66;5051709;28;20134;-77
2021/12/12 09:16:39;;;;;;;62.95;24.42;;;;;;;-146.64;100.00;40907.84;5051207;28;20033;-78
2021/12/12 09:19:19;;;;;;;57.65;25.92;;;;;;;-146.64;100.00;40926.28;5058713;28;20043;-77
2021/12/12 09:21:54;;;;;;;55.53;26.08;;;;;;;-146.64;100.00;40963.13;5066930;28;20032;-77
2021/12/12 09:24:46;;;;;;;62.88;24.75;;;;;;;-146.64;100.00;40897.63;5052019;28;20048;-77
2021/12/12 09:27:17;;;;;;;63.58;25.92;;;;;;;-146.64;100.00;40942.66;5051026;28;20021;-77
2021/12/12 09:29:52;;;;;;;45.95;23.42;;;;;;;-146.64;100.00;40954.94;5062143;28;20392;-77
2021/12/12 09:32:44;;;;;;;51.97;23.77;;;;;;;-146.64;100.00;41004.09;5062492;28;20387;-77
2021/12/12 09:35:20;;;;;;;47.55;23.95;;;;;;;-146.64;100.00;41051.19;5044950;28;20063;-77
2021/12/12 09:37:52;;;;;;;42.17;22.90;;;;;;;-146.64;100.00;41042.97;5053106;28;20476;-77
2021/12/12 09:40:27;;;;;;;46.95;23.52;;;;;;;-146.64;100.00;41040.94;5051586;28;20121;-77
2021/12/12 09:43:31;;;;;;;46.90;22.52;;;;;;;-146.64;100.00;41079.84;5052898;28;20025;-77
2021/12/12 09:46:30;;;;;;;48.72;23.05;;;;;;;-146.64;100.00;41085.97;5049910;28;20104;-77
2021/12/12 09:53:03;;;;;;;59.35;24.55;;;;;;;-146.64;100.00;41192.44;5043444;28;20587;-77
2021/12/12 09:55:35;;;;;;;48.33;25.45;;;;;;;-146.64;100.00;41214.97;5050380;28;20041;-77
2021/12/12 09:58:05;;;;;;;51.08;24.02;;;;;;;-146.64;100.00;41237.50;5041190;28;20028;-77
2021/12/12 10:00:58;;;;;;;51.30;24.23;;;;;;;-146.64;100.00;41274.34;5049988;28;20028;-78
2021/12/12 10:03:44;;;;;;;54.70;24.77;;;;;;;-146.64;100.00;41280.50;5042038;28;20038;-77
2021/12/12 10:06:29;;;;;;;52.15;24.75;;;;;;;-146.64;100.00;41245.69;5040720;28;20396;-77
2021/12/12 10:09:15;;;;;;;49.63;24.40;;;;;;;-146.64;100.00;41272.31;5062959;28;20108;-77
2021/12/12 10:11:49;;;;;;;52.17;23.52;;;;;;;-146.64;100.00;41274.34;5037668;28;20574;-77
2021/12/12 10:14:24;;;;;;;47.17;23.23;;;;;;;-146.64;100.00;41376.75;5061141;28;20504;-77
2021/12/12 10:16:58;;;;;;;56.60;23.83;;;;;;;-146.64;100.00;41356.25;5044824;28;20036;-77
2021/12/12 10:19:33;;;;;;;45.05;22.52;;;;;;;-146.64;100.00;41417.69;5060298;28;20110;-77
2021/12/12 10:22:10;;;;;;;46.88;23.15;;;;;;;-146.64;100.00;41468.88;5050174;28;20036;-77
2021/12/12 10:24:48;;;;;;;48.92;23.33;;;;;;;-146.64;100.00;41515.97;5045272;28;20183;-77
2021/12/12 10:27:31;;;;;;;44.55;22.60;;;;;;;-146.64;100.00;41509.84;5062595;28;20385;-76
2021/12/12 10:30:06;;;;;;;49.70;23.27;;;;;;;-146.64;100.00;41507.78;5054050;28;20385;-76
2021/12/12 10:32:40;;;;;;;41.67;22.00;;;;;;;-146.64;100.00;41542.59;5050151;28;20033;-76
2021/12/12 10:35:11;;;;;;;52.10;23.63;;;;;;;-146.64;100.00;41483.22;5050229;28;20450;-76
2021/12/12 10:37:49;;;;;;;53.42;23.27;;;;;;;-146.64;100.00;41491.41;5052060;28;20122;-76
2021/12/12 10:40:35;;;;;;;46.20;25.27;;;;;;;-146.64;100.00;41515.97;5049684;28;20484;-76
2021/12/12 10:43:05;;;;;;;41.40;22.85;;;;;;;-146.64;100.00;41548.75;5064332;28;20538;-76
2021/12/12 10:45:37;;;;;;;42.65;22.25;;;;;;;-146.64;100.00;41462.75;5052050;28;20086;-76
2021/12/12 10:48:09;;;;;;;41.75;22.40;;;;;;;-146.64;100.00;41458.66;5060595;28;20124;-76
2021/12/12 10:50:44;;;;;;;45.25;21.73;;;;;;;-146.64;100.00;41382.88;5055282;28;20527;-76
2021/12/12 10:53:40;;;;;;;41.38;22.25;;;;;;;-146.64;100.00;41411.56;5048666;28;20040;-77
2021/12/12 10:56:22;;;;;;;38.65;21.25;;;;;;;-146.64;100.00;41356.25;5063237;28;20466;-77
2021/12/12 10:58:53;;;;;;;43.22;22.40;;;;;;;-146.64;100.00;41409.50;5055246;28;20566;-76
2021/12/12 11:01:27;;;;;;;41.85;21.48;;;;;;;-146.64;100.00;41421.78;5061501;28;20051;-76
2021/12/12 11:04:18;;;;;;;39.65;21.92;;;;;;;-146.64;100.00;41542.59;5055127;28;20043;-77
2021/12/12 11:06:57;;;;;;;39.90;21.50;;;;;;;-146.64;100.00;41624.50;5043593;28;20109;-76
2021/12/12 11:09:46;;;;;;;35.22;20.38;;;;;;;-146.64;100.00;41683.91;5050745;28;20040;-76
2021/12/12 11:12:12;;;;;;;32.67;19.80;;;;;;;-146.64;100.00;41765.81;5056627;28;20598;-77
2021/12/12 11:15:04;;;;;;;36.90;19.52;;;;;;;-146.64;100.00;41821.09;5059630;28;20103;-76
2021/12/12 11:17:34;;;;;;;43.00;19.85;;;;;;;-146.64;100.00;41769.91;5006897;28;20170;-76
2021/12/12 11:20:23;;;;;;;37.50;20.70;;;;;;;-146.64;100.00;41728.94;5061374;28;20159;-77
2021/12/12 11:22:51;;;;;;;30.85;18.48;;;;;;;-146.64;100.00;41683.91;5066357;28;20021;-76
2021/12/12 11:25:25;;;;;;;35.30;19.85;;;;;;;-146.64;100.00;41673.66;5061155;28;20029;-76
2021/12/12 11:27:59;;;;;;;36.85;17.73;;;;;;;-146.64;100.00;41626.56;5068241;28;20020;-76
2021/12/12 11:30:30;;;;;;;32.63;18.92;;;;;;;-146.64;100.00;41683.91;5040541;28;20396;-76
2021/12/12 11:32:57;;;;;;;32.85;17.92;;;;;;;-146.64;100.00;41626.56;5052187;28;20491;-77